createdAt,value
2023-09-27T00:01:36.507Z,15.44
2023-09-27T00:04:05.704Z,15.39
2023-09-27T00:06:34.280Z,15.42
2023-09-27T00:09:05.546Z,15.41
2023-09-27T00:11:33.972Z,15.41
2023-09-27T00:14:02.494Z,15.39
2023-09-27T00:16:31.018Z,15.37
2023-09-27T00:18:59.529Z,15.39
2023-09-27T00:21:27.935Z,15.41
2023-09-27T00:23:56.378Z,15.33
2023-09-27T00:26:26.458Z,15.23
2023-09-27T00:28:55.173Z,15.22
2023-09-27T00:31:24.007Z,15.31
2023-09-27T00:33:52.512Z,15.34
2023-09-27T00:36:21.070Z,15.33
2023-09-27T00:38:49.538Z,15.22
2023-09-27T00:41:18.098Z,15.31
2023-09-27T00:43:47.978Z,15.26
2023-09-27T00:46:18.455Z,15.35
2023-09-27T00:48:47.465Z,15.28
2023-09-27T00:51:18.632Z,15.12
2023-09-27T00:53:50.089Z,15.22
2023-09-27T00:56:18.815Z,15.37
2023-09-27T00:58:49.450Z,15.08
2023-09-27T01:01:18.342Z,14.98
2023-09-27T01:03:47.724Z,14.97
2023-09-27T01:06:16.544Z,15.04
2023-09-27T01:08:45.076Z,15.19
2023-09-27T01:11:13.817Z,15.23
2023-09-27T01:13:42.271Z,15.26
2023-09-27T01:16:12.108Z,15.16
2023-09-27T01:18:41.037Z,15.05
2023-09-27T01:21:09.518Z,14.93
2023-09-27T01:23:42.103Z,14.82
2023-09-27T01:26:13.169Z,14.76
2023-09-27T01:28:43.796Z,14.68
2023-09-27T01:31:12.249Z,14.65
2023-09-27T01:33:41.255Z,14.80
2023-09-27T01:36:10.128Z,14.93
2023-09-27T01:38:40.239Z,14.88
2023-09-27T01:41:08.688Z,14.96
2023-09-27T01:43:37.209Z,15.02
2023-09-27T01:46:05.929Z,14.93
2023-09-27T01:48:34.412Z,14.79
2023-09-27T01:51:03.088Z,14.69
2023-09-27T01:53:31.650Z,14.56
2023-09-27T01:56:03.718Z,14.56
2023-09-27T01:58:32.137Z,14.50
2023-09-27T02:01:01.132Z,14.45
2023-09-27T02:03:29.667Z,14.54
2023-09-27T02:06:00.127Z,14.59
2023-09-27T02:08:28.710Z,14.60
2023-09-27T02:10:57.222Z,14.60
2023-09-27T02:13:27.010Z,14.56
2023-09-27T02:15:56.770Z,14.48
2023-09-27T02:18:25.238Z,14.45
2023-09-27T02:20:54.256Z,14.44
2023-09-27T02:23:22.739Z,14.41
2023-09-27T02:25:59.698Z,14.29
2023-09-27T02:28:29.575Z,14.28
2023-09-27T02:30:59.427Z,14.27
2023-09-27T02:33:28.874Z,14.40
2023-09-27T02:35:57.366Z,14.35
2023-09-27T02:38:27.113Z,14.41
2023-09-27T02:40:55.587Z,14.49
2023-09-27T02:43:24.175Z,14.39
2023-09-27T02:45:53.995Z,14.18
2023-09-27T02:48:22.583Z,14.13
2023-09-27T02:50:51.542Z,14.14
2023-09-27T02:53:20.044Z,14.09
2023-09-27T02:55:48.615Z,13.91
2023-09-27T02:58:17.513Z,13.80
2023-09-27T03:00:45.953Z,13.79
2023-09-27T03:03:15.897Z,13.83
2023-09-27T03:05:44.960Z,13.78
2023-09-27T03:08:13.732Z,13.79
2023-09-27T03:10:43.069Z,13.73
2023-09-27T03:13:12.603Z,13.69
2023-09-27T03:15:41.890Z,13.66
2023-09-27T03:18:10.465Z,13.68
2023-09-27T03:20:40.316Z,13.76
2023-09-27T03:23:08.964Z,13.81
2023-09-27T03:25:37.456Z,13.86
2023-09-27T03:28:06.353Z,13.87
2023-09-27T03:30:35.250Z,13.77
2023-09-27T03:33:03.795Z,13.64
2023-09-27T03:35:32.835Z,13.75
2023-09-27T03:38:02.748Z,13.84
2023-09-27T03:40:31.229Z,13.77
2023-09-27T03:42:59.961Z,13.70
2023-09-27T03:45:28.471Z,13.67
2023-09-27T03:47:56.957Z,13.67
2023-09-27T03:50:25.484Z,13.69
2023-09-27T03:52:58.858Z,13.59
2023-09-27T03:55:29.477Z,13.65
2023-09-27T03:57:57.966Z,13.60
2023-09-27T04:00:27.515Z,13.71
2023-09-27T04:02:56.200Z,13.61
2023-09-27T04:05:27.565Z,13.52
2023-09-27T04:07:56.101Z,13.46
2023-09-27T04:10:25.762Z,13.47
2023-09-27T04:12:55.681Z,13.50
2023-09-27T04:15:24.602Z,13.47
2023-09-27T04:17:53.123Z,13.51
2023-09-27T04:20:22.732Z,13.47
2023-09-27T04:22:51.688Z,13.41
2023-09-27T04:25:20.962Z,13.43
2023-09-27T04:27:52.012Z,13.52
2023-09-27T04:30:23.960Z,13.58
2023-09-27T04:32:53.932Z,13.56
2023-09-27T04:35:23.285Z,13.53
2023-09-27T04:37:52.198Z,13.51
2023-09-27T04:40:21.035Z,13.51
2023-09-27T04:42:50.096Z,13.44
2023-09-27T04:45:18.794Z,13.35
2023-09-27T04:47:49.010Z,13.43
2023-09-27T04:50:17.788Z,13.42
2023-09-27T04:52:46.910Z,13.47
2023-09-27T04:55:15.965Z,13.39
2023-09-27T04:57:44.679Z,13.37
2023-09-27T05:00:19.548Z,13.32
2023-09-27T05:02:49.511Z,13.30
2023-09-27T05:05:18.495Z,13.27
2023-09-27T05:07:47.167Z,13.19
2023-09-27T05:10:15.925Z,13.13
2023-09-27T05:12:44.449Z,13.17
2023-09-27T05:15:13.197Z,13.26
2023-09-27T05:17:41.818Z,13.19
2023-09-27T05:20:13.564Z,13.19
2023-09-27T05:22:43.046Z,13.23
2023-09-27T05:25:11.822Z,13.29
2023-09-27T05:27:40.759Z,13.27
2023-09-27T05:30:10.149Z,13.29
2023-09-27T05:32:38.937Z,13.29
2023-09-27T05:35:08.408Z,13.22
2023-09-27T05:37:38.231Z,13.21
2023-09-27T05:40:10.359Z,13.21
2023-09-27T05:42:39.201Z,13.20
2023-09-27T05:45:11.548Z,13.24
2023-09-27T05:47:40.742Z,13.29
2023-09-27T05:50:10.733Z,13.23
2023-09-27T05:52:44.351Z,13.19
2023-09-27T05:55:12.854Z,13.19
2023-09-27T05:57:41.523Z,13.15
2023-09-27T06:00:16.079Z,13.13
2023-09-27T06:02:45.007Z,13.13
2023-09-27T06:05:13.853Z,13.15
2023-09-27T06:07:44.311Z,13.19
2023-09-27T06:10:12.856Z,13.23
2023-09-27T06:12:41.344Z,13.19
2023-09-27T06:15:13.305Z,13.20
2023-09-27T06:17:43.352Z,13.25
2023-09-27T06:20:13.548Z,13.25
2023-09-27T06:22:45.361Z,13.27
2023-09-27T06:25:14.632Z,13.28
2023-09-27T06:27:44.287Z,13.31
2023-09-27T06:30:14.007Z,13.33
2023-09-27T06:32:42.604Z,13.34
2023-09-27T06:35:15.344Z,13.35
2023-09-27T06:37:50.410Z,13.37
2023-09-27T06:40:23.206Z,13.37
2023-09-27T06:42:51.948Z,13.40
2023-09-27T06:45:20.947Z,13.43
2023-09-27T06:47:49.996Z,13.45
2023-09-27T06:50:20.243Z,13.50
2023-09-27T06:52:51.968Z,13.52
2023-09-27T06:55:24.011Z,13.57
2023-09-27T06:57:53.583Z,13.60
2023-09-27T07:00:25.472Z,13.64
2023-09-27T07:02:54.793Z,13.67
2023-09-27T07:05:24.107Z,13.73
2023-09-27T07:07:55.636Z,13.77
2023-09-27T07:10:25.358Z,13.80
2023-09-27T07:12:54.205Z,13.84
2023-09-27T07:15:23.385Z,13.89
2023-09-27T07:17:52.148Z,13.94
2023-09-27T07:20:28.142Z,13.99
2023-09-27T07:22:58.177Z,14.05
2023-09-27T07:25:29.689Z,14.10
2023-09-27T07:27:58.177Z,14.17
2023-09-27T07:30:26.894Z,14.22
2023-09-27T07:32:56.499Z,14.30
2023-09-27T07:35:29.876Z,14.44
2023-09-27T07:38:02.037Z,14.47
2023-09-27T07:40:30.795Z,14.56
2023-09-27T07:42:59.855Z,14.64
2023-09-27T07:45:31.948Z,14.73
2023-09-27T07:48:01.108Z,14.83
2023-09-27T07:50:32.611Z,14.95
2023-09-27T07:53:04.723Z,15.08
2023-09-27T07:55:35.052Z,15.18
2023-09-27T07:58:05.098Z,15.42
2023-09-27T08:00:34.307Z,15.49
2023-09-27T08:03:04.205Z,15.56
2023-09-27T08:05:32.862Z,15.70
2023-09-27T08:08:02.803Z,15.81
2023-09-27T08:10:33.555Z,15.89
2023-09-27T08:13:02.048Z,16.00
2023-09-27T08:15:29.628Z,15.96
2023-09-27T08:17:58.665Z,15.99
2023-09-27T08:20:28.179Z,16.03
2023-09-27T08:22:57.061Z,16.11
2023-09-27T08:25:26.945Z,16.24
2023-09-27T08:27:55.449Z,16.27
2023-09-27T08:30:24.140Z,16.41
2023-09-27T08:32:53.572Z,16.43
2023-09-27T08:35:22.105Z,16.53
2023-09-27T08:37:50.662Z,16.79
2023-09-27T08:40:20.156Z,16.79
2023-09-27T08:42:53.491Z,16.95
2023-09-27T08:45:24.429Z,16.92
2023-09-27T08:47:53.385Z,16.95
2023-09-27T08:50:22.928Z,17.00
2023-09-27T08:52:52.739Z,17.08
2023-09-27T08:55:22.237Z,17.13
2023-09-27T08:57:53.097Z,17.26
2023-09-27T09:00:24.843Z,17.61
2023-09-27T09:03:00.001Z,17.70
2023-09-27T09:05:31.101Z,17.67
2023-09-27T09:08:01.720Z,17.71
2023-09-27T09:10:30.819Z,17.79
2023-09-27T09:13:01.742Z,17.98
2023-09-27T09:15:37.456Z,18.10
2023-09-27T09:18:09.946Z,18.09
2023-09-27T09:20:51.614Z,18.08
2023-09-27T09:23:31.339Z,18.17
2023-09-27T09:26:00.435Z,18.26
2023-09-27T09:28:30.767Z,18.51
2023-09-27T09:30:59.687Z,18.56
2023-09-27T09:33:29.769Z,18.69
2023-09-27T09:35:58.733Z,18.84
2023-09-27T09:38:30.339Z,18.93
2023-09-27T09:40:59.935Z,18.96
2023-09-27T09:43:34.684Z,19.01
2023-09-27T09:46:05.124Z,19.07
2023-09-27T09:48:35.511Z,19.24
2023-09-27T09:51:07.735Z,19.24
2023-09-27T09:53:40.141Z,19.56
2023-09-27T09:56:29.936Z,19.81
2023-09-27T09:59:04.314Z,19.89
2023-09-27T10:01:38.252Z,20.07
2023-09-27T10:04:08.758Z,20.19
2023-09-27T10:09:29.992Z,20.16
2023-09-27T10:11:59.234Z,20.23
2023-09-27T10:14:30.280Z,20.41
2023-09-27T10:16:58.887Z,20.55
2023-09-27T10:19:29.029Z,20.72
2023-09-27T10:22:06.966Z,20.96
2023-09-27T10:24:37.006Z,21.03
2023-09-27T10:27:05.666Z,21.16
2023-09-27T10:29:59.173Z,21.31
2023-09-27T10:32:29.332Z,21.41
2023-09-27T10:35:16.721Z,21.54
2023-09-27T10:38:05.554Z,21.66
2023-09-27T10:40:43.487Z,21.74
2023-09-27T10:43:12.309Z,21.77
2023-09-27T10:45:42.358Z,21.90
2023-09-27T10:48:19.877Z,21.94
2023-09-27T10:50:54.143Z,21.97
2023-09-27T10:53:22.839Z,21.92
2023-09-27T10:55:51.612Z,21.92
2023-09-27T10:58:20.655Z,21.98
2023-09-27T11:00:55.846Z,22.01
2023-09-27T11:03:26.028Z,22.05
2023-09-27T11:05:54.759Z,22.11
2023-09-27T11:08:24.776Z,22.16
2023-09-27T11:10:57.085Z,22.20
2023-09-27T11:13:26.727Z,22.22
2023-09-27T11:16:08.215Z,22.23
2023-09-27T11:18:36.931Z,22.24
2023-09-27T11:21:10.548Z,22.22
2023-09-27T11:23:53.856Z,22.22
2023-09-27T11:26:22.858Z,22.22
2023-09-27T11:28:59.153Z,22.23
2023-09-27T11:31:30.783Z,22.30
2023-09-27T11:34:16.722Z,22.31
2023-09-27T11:36:47.098Z,22.33
2023-09-27T11:39:16.137Z,22.36
2023-09-27T11:41:46.333Z,22.40
2023-09-27T11:44:18.915Z,22.40
2023-09-27T11:46:51.176Z,22.46
2023-09-27T11:49:20.509Z,22.48
2023-09-27T11:51:49.066Z,22.51
2023-09-27T11:54:18.164Z,22.54
2023-09-27T11:56:48.308Z,22.59
2023-09-27T11:59:17.039Z,22.66
2023-09-27T12:01:45.599Z,22.68
2023-09-27T12:04:15.575Z,22.71
2023-09-27T12:06:44.661Z,22.74
2023-09-27T12:09:13.369Z,22.80
2023-09-27T12:11:41.888Z,22.86
2023-09-27T12:14:10.429Z,22.90
2023-09-27T12:16:39.026Z,22.95
2023-09-27T12:19:07.541Z,23.00
2023-09-27T12:21:38.353Z,23.06
2023-09-27T12:24:07.734Z,23.15
2023-09-27T12:26:37.599Z,23.21
2023-09-27T12:29:06.228Z,23.32
2023-09-27T12:31:34.750Z,23.37
2023-09-27T12:34:03.268Z,23.39
2023-09-27T12:36:31.752Z,23.41
2023-09-27T12:39:03.595Z,23.42
2023-09-27T12:41:32.197Z,23.46
2023-09-27T12:44:01.542Z,23.52
2023-09-27T12:46:30.629Z,23.63
2023-09-27T12:49:00.312Z,23.71
2023-09-27T12:51:35.162Z,23.75
2023-09-27T12:54:14.608Z,23.70
2023-09-27T12:56:43.919Z,23.67
2023-09-27T12:59:12.660Z,23.66
2023-09-27T13:01:41.251Z,23.73
2023-09-27T13:04:10.723Z,23.81
2023-09-27T13:06:39.504Z,23.94
2023-09-27T13:09:08.139Z,24.12
2023-09-27T13:11:38.228Z,24.32
2023-09-27T13:14:06.811Z,24.55
2023-09-27T13:16:35.318Z,24.56
2023-09-27T13:19:03.897Z,24.51
2023-09-27T13:21:32.449Z,24.61
2023-09-27T13:24:00.948Z,24.58
2023-09-27T13:26:29.500Z,24.60
2023-09-27T13:28:59.310Z,24.61
2023-09-27T13:31:32.994Z,24.68
2023-09-27T13:34:10.134Z,24.80
2023-09-27T13:36:42.013Z,24.97
2023-09-27T13:39:15.469Z,25.21
2023-09-27T13:41:45.917Z,25.43
2023-09-27T13:44:16.599Z,25.60
2023-09-27T13:46:45.481Z,25.71
2023-09-27T13:49:14.061Z,25.84
2023-09-27T13:51:43.426Z,26.00
2023-09-27T13:54:13.075Z,26.06
2023-09-27T13:56:41.658Z,26.16
2023-09-27T13:59:10.285Z,26.33
2023-09-27T14:01:40.552Z,26.45
2023-09-27T14:04:09.855Z,26.52
2023-09-27T14:06:38.458Z,26.46
2023-09-27T14:09:07.204Z,26.56
2023-09-27T14:11:36.749Z,26.56
2023-09-27T14:14:05.277Z,26.39
2023-09-27T14:16:33.915Z,26.43
2023-09-27T14:19:05.307Z,26.45
2023-09-27T14:21:34.197Z,26.46
2023-09-27T14:24:02.871Z,26.46
2023-09-27T14:26:31.480Z,26.39
2023-09-27T14:29:00.124Z,26.27
2023-09-27T14:31:29.398Z,26.26
2023-09-27T14:34:02.042Z,26.15
2023-09-27T14:36:33.790Z,26.08
2023-09-27T14:39:02.692Z,25.98
2023-09-27T14:41:32.871Z,25.94
2023-09-27T14:44:01.423Z,25.87
2023-09-27T14:46:30.061Z,25.79
2023-09-27T14:48:58.602Z,25.69
2023-09-27T14:51:27.295Z,25.64
2023-09-27T14:53:57.134Z,25.60
2023-09-27T14:56:25.609Z,25.53
2023-09-27T14:58:54.068Z,25.47
2023-09-27T15:01:22.594Z,25.45
2023-09-27T15:03:51.429Z,25.45
2023-09-27T15:06:19.935Z,25.38
2023-09-27T15:08:50.523Z,25.33
2023-09-27T15:11:26.077Z,25.36
2023-09-27T15:13:57.417Z,25.33
2023-09-27T15:16:26.241Z,25.32
2023-09-27T15:18:54.763Z,25.34
2023-09-27T15:21:23.295Z,25.32
2023-09-27T15:23:52.224Z,25.25
2023-09-27T15:26:21.898Z,25.24
2023-09-27T15:28:51.833Z,25.22
2023-09-27T15:31:20.336Z,25.23
2023-09-27T15:33:50.580Z,25.32
2023-09-27T15:36:19.096Z,25.40
2023-09-27T15:38:47.560Z,25.47
2023-09-27T15:41:19.778Z,25.48
2023-09-27T15:43:50.781Z,25.46
2023-09-27T15:46:21.177Z,25.43
2023-09-27T15:48:50.457Z,25.46
2023-09-27T15:51:18.954Z,25.48
2023-09-27T15:53:47.389Z,25.50
2023-09-27T15:56:15.917Z,25.53
2023-09-27T15:58:44.372Z,25.52
2023-09-27T16:01:13.379Z,25.56
2023-09-27T16:03:43.511Z,25.44
2023-09-27T16:06:12.002Z,25.40
2023-09-27T16:08:40.447Z,25.28
2023-09-27T16:11:08.982Z,25.23
2023-09-27T16:13:37.553Z,25.20
2023-09-27T16:16:06.253Z,25.11
2023-09-27T16:18:34.858Z,25.10
2023-09-27T16:21:04.717Z,25.05
2023-09-27T16:23:33.351Z,24.99
2023-09-27T16:26:01.926Z,24.96
2023-09-27T16:28:30.529Z,24.90
2023-09-27T16:30:59.633Z,24.78
2023-09-27T16:33:28.339Z,24.78
2023-09-27T16:35:56.844Z,24.70
2023-09-27T16:38:26.887Z,24.66
2023-09-27T16:40:55.372Z,24.61
2023-09-27T16:43:23.884Z,24.57
2023-09-27T16:45:52.441Z,24.51
2023-09-27T16:48:22.245Z,24.50
2023-09-27T16:50:50.768Z,24.42
2023-09-27T16:53:19.293Z,24.41
2023-09-27T16:55:49.765Z,24.34
2023-09-27T16:58:18.265Z,24.32
2023-09-27T17:00:48.105Z,24.20
2023-09-27T17:03:17.176Z,24.16
2023-09-27T17:05:46.485Z,24.07
2023-09-27T17:08:16.772Z,23.99
2023-09-27T17:10:46.109Z,23.88
2023-09-27T17:13:16.003Z,23.83
2023-09-27T17:15:45.269Z,23.84
2023-09-27T17:18:14.794Z,23.76
2023-09-27T17:20:43.327Z,23.70
2023-09-27T17:23:11.790Z,23.64
2023-09-27T17:25:40.245Z,23.60
2023-09-27T17:28:08.767Z,23.61
2023-09-27T17:30:39.553Z,23.50
2023-09-27T17:33:08.128Z,23.49
2023-09-27T17:35:36.623Z,23.53
2023-09-27T17:38:09.708Z,23.38
2023-09-27T17:40:38.228Z,23.39
2023-09-27T17:43:06.839Z,23.33
2023-09-27T17:45:35.483Z,23.23
2023-09-27T17:48:06.018Z,23.22
2023-09-27T17:50:34.501Z,23.09
2023-09-27T17:53:03.012Z,23.05
2023-09-27T17:55:31.518Z,22.89
2023-09-27T17:58:01.092Z,22.79
2023-09-27T18:00:29.806Z,22.68
2023-09-27T18:02:58.440Z,22.73
2023-09-27T18:05:28.376Z,22.79
2023-09-27T18:07:56.943Z,22.70
2023-09-27T18:10:25.460Z,22.68
2023-09-27T18:12:54.643Z,22.64
2023-09-27T18:15:28.396Z,22.65
2023-09-27T18:17:57.434Z,22.55
2023-09-27T18:20:27.330Z,22.31
2023-09-27T18:22:55.873Z,22.22
2023-09-27T18:25:25.688Z,22.03
2023-09-27T18:27:54.681Z,21.78
2023-09-27T18:30:23.303Z,21.53
2023-09-27T18:32:51.880Z,21.36
2023-09-27T18:35:20.630Z,21.49
2023-09-27T18:37:50.505Z,21.74
2023-09-27T18:40:20.458Z,21.75
2023-09-27T18:42:48.944Z,21.58
2023-09-27T18:45:17.526Z,21.42
2023-09-27T18:47:47.485Z,21.13
2023-09-27T18:50:18.306Z,21.02
2023-09-27T18:52:46.864Z,21.06
2023-09-27T18:55:16.996Z,21.21
2023-09-27T18:57:45.441Z,21.15
2023-09-27T19:00:14.615Z,21.16
2023-09-27T19:02:43.158Z,21.31
2023-09-27T19:05:12.102Z,21.10
2023-09-27T19:07:40.635Z,21.18
2023-09-27T19:10:12.351Z,20.91
2023-09-27T19:12:42.205Z,20.81
2023-09-27T19:15:12.024Z,20.79
2023-09-27T19:17:40.944Z,20.81
2023-09-27T19:20:10.894Z,20.95
2023-09-27T19:22:39.467Z,20.65
2023-09-27T19:25:08.499Z,20.55
2023-09-27T19:27:37.171Z,20.36
2023-09-27T19:30:09.752Z,20.22
2023-09-27T19:32:38.287Z,20.18
2023-09-27T19:35:07.304Z,20.28
2023-09-27T19:37:36.201Z,20.27
2023-09-27T19:40:05.337Z,20.14
2023-09-27T19:42:33.808Z,20.08
2023-09-27T19:45:02.295Z,19.99
2023-09-27T19:47:33.200Z,19.84
2023-09-27T19:50:04.618Z,19.89
2023-09-27T19:52:33.948Z,19.87
2023-09-27T19:55:02.717Z,19.90
2023-09-27T19:57:31.607Z,19.83
2023-09-27T20:00:00.127Z,19.93
2023-09-27T20:02:28.744Z,19.76
2023-09-27T20:04:58.731Z,19.66
2023-09-27T20:07:27.360Z,19.77
2023-09-27T20:09:55.838Z,19.63
2023-09-27T20:12:24.303Z,19.67
2023-09-27T20:14:52.819Z,19.50
2023-09-27T20:17:22.116Z,19.54
2023-09-27T20:19:50.609Z,19.60
2023-09-27T20:22:21.020Z,19.80
2023-09-27T20:24:49.527Z,19.56
2023-09-27T20:27:18.004Z,19.52
2023-09-27T20:29:46.492Z,19.58
2023-09-27T20:32:15.118Z,19.50
2023-09-27T20:34:44.008Z,19.42
2023-09-27T20:37:12.643Z,19.32
2023-09-27T20:39:42.586Z,19.33
2023-09-27T20:42:11.074Z,19.39
2023-09-27T20:44:40.163Z,19.27
2023-09-27T20:47:08.703Z,19.16
2023-09-27T20:49:37.332Z,19.18
2023-09-27T20:52:05.988Z,19.20
2023-09-27T20:54:34.508Z,19.12
2023-09-27T20:57:04.589Z,18.97
2023-09-27T20:59:34.981Z,18.81
2023-09-27T21:02:03.466Z,18.74
2023-09-27T21:04:32.012Z,18.62
2023-09-27T21:07:00.540Z,18.63
2023-09-27T21:09:29.785Z,18.56
2023-09-27T21:12:00.283Z,18.49
2023-09-27T21:14:30.068Z,18.46
2023-09-27T21:16:58.565Z,18.54
2023-09-27T21:19:27.076Z,18.59
2023-09-27T21:21:55.559Z,18.62
2023-09-27T21:24:24.055Z,18.54
2023-09-27T21:26:52.928Z,18.59
2023-09-27T21:29:21.445Z,18.53
2023-09-27T21:31:51.419Z,18.44
2023-09-27T21:34:19.995Z,18.40
2023-09-27T21:36:48.437Z,18.30
2023-09-27T21:39:18.994Z,18.27
2023-09-27T21:41:47.474Z,18.23
2023-09-27T21:44:15.995Z,18.26
2023-09-27T21:46:44.534Z,18.20
2023-09-27T21:49:14.390Z,18.11
2023-09-27T21:51:42.842Z,18.09
2023-09-27T21:54:11.298Z,18.09
2023-09-27T21:56:40.315Z,18.12
2023-09-27T21:59:08.881Z,18.25
2023-09-27T22:01:38.037Z,18.36
2023-09-27T22:04:07.502Z,18.34
2023-09-27T22:06:37.366Z,18.19
2023-09-27T22:09:06.024Z,18.09
2023-09-27T22:11:34.636Z,18.14
2023-09-27T22:14:05.891Z,17.90
2023-09-27T22:16:35.123Z,17.81
2023-09-27T22:19:11.810Z,17.78
2023-09-27T22:21:47.162Z,17.76
2023-09-27T22:24:22.132Z,17.80
2023-09-27T22:26:52.326Z,17.80
2023-09-27T22:29:21.067Z,17.81
2023-09-27T22:31:49.673Z,17.67
2023-09-27T22:34:24.541Z,17.62
2023-09-27T22:37:01.171Z,17.54
2023-09-27T22:39:32.473Z,17.52
2023-09-27T22:42:03.646Z,17.49
2023-09-27T22:44:34.102Z,17.55
2023-09-27T22:47:02.742Z,17.60
2023-09-27T22:49:31.244Z,17.60
2023-09-27T22:52:01.048Z,17.66
2023-09-27T22:54:29.633Z,17.54
2023-09-27T22:56:58.070Z,17.65
2023-09-27T22:59:26.546Z,17.52
2023-09-27T23:01:57.078Z,17.48
2023-09-27T23:04:25.964Z,17.48
2023-09-27T23:07:05.340Z,17.36
2023-09-27T23:09:37.228Z,17.32
2023-09-27T23:12:20.106Z,17.27
2023-09-27T23:15:06.692Z,17.35
2023-09-27T23:17:57.576Z,17.38
2023-09-27T23:20:30.284Z,17.30
2023-09-27T23:23:06.635Z,17.36
2023-09-27T23:25:53.656Z,17.37
2023-09-27T23:28:40.614Z,17.41
2023-09-27T23:31:09.970Z,17.34
2023-09-27T23:33:42.945Z,17.35
2023-09-27T23:36:24.153Z,17.29
2023-09-27T23:38:59.372Z,17.22
2023-09-27T23:41:31.764Z,17.18
2023-09-27T23:44:05.618Z,17.19
2023-09-27T23:46:39.578Z,17.21
2023-09-27T23:49:08.555Z,17.24
2023-09-27T23:51:37.072Z,17.25
2023-09-27T23:54:07.814Z,17.24
2023-09-27T23:56:37.918Z,17.21
2023-09-27T23:59:09.648Z,17.22
